Time;durP1;ratioP1;P1;durP2;ratioP2;P2;SDS_P1;SDS_P2;PMS_P1;PMS_P2;Temp;Humidity;BMP_temperature;BMP_pressure;BME280_temperature;BME280_humidity;BME280_pressure;Samples;Min_cycle;Max_cycle;Signal;HPM_P1;HPM_P2
2021/03/17 21:47:05;;;;;;;4.55;1.52;;;20.00;46.60;;;;;;5045243;27;1373139;-58
2021/03/17 21:49:30;;;;;;;1.58;0.82;;;20.00;47.90;;;;;;5071808;28;20275;-49
2021/03/17 21:51:56;;;;;;;4.68;1.13;;;20.10;48.10;;;;;;5072152;28;20077;-46
2021/03/17 21:54:22;;;;;;;6.78;1.50;;;20.20;47.00;;;;;;5071820;28;20093;-47
2021/03/17 21:56:47;;;;;;;4.60;1.27;;;20.30;47.00;;;;;;5072319;28;20033;-50
2021/03/17 21:59:13;;;;;;;3.40;0.95;;;20.40;46.80;;;;;;5071950;28;20316;-51
2021/03/17 22:01:39;;;;;;;3.22;1.10;;;20.50;46.40;;;;;;5071924;28;20427;-55
2021/03/17 22:04:05;;;;;;;4.07;0.90;;;20.60;46.00;;;;;;5071521;28;20402;-50
2021/03/17 22:06:31;;;;;;;3.67;0.90;;;20.60;45.10;;;;;;5071565;28;20041;-49
2021/03/17 22:08:57;;;;;;;2.53;0.95;;;20.70;45.20;;;;;;5071753;28;20021;-51
2021/03/17 22:11:23;;;;;;;6.97;0.95;;;20.80;45.00;;;;;;5067849;28;20515;-50
2021/03/17 22:13:48;;;;;;;7.07;1.35;;;20.80;44.70;;;;;;5051905;28;20021;-50
2021/03/17 22:16:14;;;;;;;5.57;1.45;;;20.80;44.50;;;;;;5051581;28;20025;-51
2021/03/17 22:18:40;;;;;;;3.15;0.90;;;20.90;44.30;;;;;;5051462;28;20054;-52
2021/03/17 22:21:10;;;;;;;2.30;1.20;;;20.90;43.90;;;;;;5051205;28;20022;-51
2021/03/17 22:23:35;;;;;;;3.72;1.25;;;20.90;43.90;;;;;;5051544;28;20024;-48
2021/03/17 22:26:01;;;;;;;6.93;1.48;;;20.90;44.40;;;;;;5051490;28;20037;-49
2021/03/17 22:28:27;;;;;;;2.72;0.93;;;20.90;43.60;;;;;;5051716;28;20029;-47
2021/03/17 22:30:56;;;;;;;3.67;1.20;;;20.90;43.50;;;;;;5063535;28;20021;-53
2021/03/17 22:33:22;;;;;;;3.13;1.20;;;20.90;43.40;;;;;;5070925;28;20032;-51
2021/03/17 22:35:49;;;;;;;4.55;1.20;;;20.90;43.40;;;;;;5071120;28;20016;-53
2021/03/17 22:38:15;;;;;;;7.07;1.35;;;20.90;43.20;;;;;;5053838;28;20035;-53
2021/03/17 22:40:41;;;;;;;3.75;1.15;;;20.80;43.20;;;;;;5070777;28;20545;-50
2021/03/17 22:43:07;;;;;;;5.32;1.67;;;20.80;43.20;;;;;;5071101;28;20116;-53
2021/03/17 22:45:33;;;;;;;5.00;1.48;;;20.80;43.10;;;;;;5070401;28;20368;-46
2021/03/17 22:47:59;;;;;;;6.00;1.08;;;20.70;42.90;;;;;;5070825;28;20025;-46
2021/03/17 22:50:29;;;;;;;3.25;1.13;;;20.70;42.90;;;;;;5070928;28;20021;-46
2021/03/17 22:52:55;;;;;;;6.03;1.60;;;20.70;42.80;;;;;;5070694;28;20112;-48
2021/03/17 22:55:20;;;;;;;5.03;1.33;;;20.70;42.80;;;;;;5070280;28;20112;-53
2021/03/17 22:57:46;;;;;;;2.15;1.10;;;20.70;42.70;;;;;;5046831;28;20087;-52
2021/03/17 23:00:22;;;;;;;8.15;1.25;;;20.70;42.70;;;;;;5037677;28;20021;-52
2021/03/17 23:02:48;;;;;;;1.77;0.93;;;20.60;42.70;;;;;;5057381;28;20052;-47
2021/03/17 23:05:14;;;;;;;4.57;1.27;;;20.60;42.60;;;;;;5046174;28;20065;-52
2021/03/17 23:07:40;;;;;;;1.95;0.88;;;20.60;42.60;;;;;;5037524;28;20345;-50
2021/03/17 23:10:14;;;;;;;3.63;1.30;;;20.50;42.50;;;;;;5037458;28;20403;-52
2021/03/17 23:12:40;;;;;;;4.22;0.98;;;20.50;42.30;;;;;;5037325;28;20025;-50
2021/03/17 23:15:08;;;;;;;3.10;1.20;;;20.50;42.20;;;;;;5054975;28;20110;-51
2021/03/17 23:17:34;;;;;;;1.67;1.00;;;20.50;42.10;;;;;;5057285;28;20025;-52
2021/03/17 23:19:59;;;;;;;3.58;1.20;;;20.50;42.10;;;;;;5057437;28;20086;-53
2021/03/17 23:22:25;;;;;;;2.45;1.10;;;20.40;42.00;;;;;;5056308;28;20104;-46
2021/03/17 23:24:57;;;;;;;2.78;1.27;;;20.40;42.00;;;;;;5055744;28;20029;-49
2021/03/17 23:27:26;;;;;;;3.15;1.35;;;20.40;41.80;;;;;;5057093;28;20029;-49
2021/03/17 23:30:41;;;;;;;4.90;1.30;;;20.40;41.70;;;;;;5057317;28;20071;-49
2021/03/17 23:33:08;;;;;;;3.42;1.27;;;20.30;41.60;;;;;;4956882;29;20031;-46
2021/03/17 23:35:38;;;;;;;4.13;1.20;;;20.30;41.50;;;;;;5037409;28;20051;-46
2021/03/17 23:38:08;;;;;;;1.13;0.80;;;20.30;41.50;;;;;;5056842;28;20057;-49
2021/03/17 23:40:45;;;;;;;3.08;1.10;;;20.20;41.40;;;;;;5056881;28;20049;-49
2021/03/17 23:43:13;;;;;;;3.22;1.00;;;20.20;41.30;;;;;;5056825;28;20021;-47
2021/03/17 23:45:40;;;;;;;2.08;1.10;;;20.20;41.30;;;;;;5056611;28;20061;-49
2021/03/17 23:48:07;;;;;;;2.40;1.17;;;20.20;41.20;;;;;;5056725;28;20097;-49
2021/03/17 23:50:46;;;;;;;3.67;1.20;;;20.10;41.10;;;;;;5044406;28;20436;-50
2021/03/17 23:53:17;;;;;;;2.17;1.05;;;20.10;41.10;;;;;;5037093;28;20026;-46
2021/03/17 23:55:42;;;;;;;3.42;1.38;;;20.10;41.00;;;;;;5037013;28;20029;-49
2021/03/17 23:58:09;;;;;;;4.20;1.20;;;20.10;41.00;;;;;;5036806;28;20036;-53
